Terminal Aerodrome Forecast
Issued by NWS Pocatello, ID

Current Version | Previous Version | Text Only | Print | Product List | Glossary On
Versions: 1 2 3 4 5 6 7 8 9 10 11 12 13 14 15 16 17 18 19
000
FTUS45 KPIH 301100
TAFPIH
TAF
KPIH 301120Z 3012/0112 21008KT P6SM VCSH BKN015 OVC030
     FM301600 24016G26KT P6SM VCSH SCT015 BKN030 OVC060
     FM302000 25022G32KT P6SM BKN090
     FM010300 22015KT P6SM VCSH SCT040 BKN090
     FM010700 24008KT P6SM VCSH BKN040 OVC090=

USA.gov is the U.S. government's official web portal to all federal, state and local government web resources and services.